Time;durP1;ratioP1;P1;durP2;ratioP2;P2;SDS_P1;SDS_P2;PMS_P1;PMS_P2;Temp;Humidity;BMP_temperature;BMP_pressure;BME280_temperature;BME280_humidity;BME280_pressure;Samples;Min_cycle;Max_cycle;Signal;HPM_P1;HPM_P2
2022/05/03 00:01:25;;;;;;;9.45;4.13;;;5.10;99.90;;;;;;5098768;27;20051;-66
2022/05/03 00:04:05;;;;;;;6.80;3.28;;;5.10;99.90;;;;;;5107244;27;20516;-66
2022/05/03 00:06:50;;;;;;;8.27;3.92;;;5.00;99.90;;;;;;5115318;27;20392;-66
2022/05/03 00:09:24;;;;;;;7.28;3.63;;;5.00;99.90;;;;;;5115320;27;20043;-66
2022/05/03 00:12:03;;;;;;;7.63;4.18;;;5.00;99.90;;;;;;5118141;27;20142;-66
2022/05/03 00:14:45;;;;;;;8.80;3.63;;;5.00;99.90;;;;;;5124724;27;20050;-66
2022/05/03 00:17:15;;;;;;;12.10;4.35;;;4.90;99.90;;;;;;5115091;27;20388;-66
2022/05/03 00:19:43;;;;;;;9.38;4.38;;;4.90;99.90;;;;;;5115441;27;20047;-67
2022/05/03 00:22:12;;;;;;;8.65;3.78;;;4.90;99.90;;;;;;5097784;27;20043;-66
2022/05/03 00:24:38;;;;;;;12.30;4.82;;;4.90;99.90;;;;;;5115011;27;20035;-68
2022/05/03 00:27:04;;;;;;;8.57;4.32;;;4.90;99.90;;;;;;5113365;27;20060;-67
2022/05/03 00:29:30;;;;;;;10.02;4.15;;;4.90;99.90;;;;;;5116801;27;20499;-66
2022/05/03 00:31:57;;;;;;;10.35;4.35;;;4.80;99.90;;;;;;5099497;27;20044;-66
2022/05/03 00:34:25;;;;;;;7.65;4.07;;;4.80;99.90;;;;;;5113676;27;20043;-66
2022/05/03 00:36:51;;;;;;;9.98;4.97;;;4.70;99.90;;;;;;5114681;27;20043;-66
2022/05/03 00:39:16;;;;;;;10.40;4.63;;;4.70;99.90;;;;;;5113799;27;20079;-66
2022/05/03 00:41:55;;;;;;;10.25;4.90;;;4.70;99.90;;;;;;5115884;27;20054;-66
2022/05/03 00:47:28;;;;;;;9.45;4.50;;;4.70;99.90;;;;;;5116161;27;20054;-66
2022/05/03 00:50:04;;;;;;;10.13;4.97;;;4.60;99.90;;;;;;5118595;27;20043;-67
2022/05/03 00:53:16;;;;;;;9.15;5.07;;;4.60;99.90;;;;;;5116219;27;21419;-66
2022/05/03 00:55:51;;;;;;;;;;;4.60;99.90;;;;;;5110482;27;20114;-66
2022/05/03 00:58:49;;;;;;;9.35;5.30;;;4.60;99.90;;;;;;5113697;27;20367;-66
2022/05/03 01:01:33;;;;;;;10.18;4.53;;;4.70;99.90;;;;;;5081483;27;20054;-66
2022/05/03 01:04:21;;;;;;;10.20;5.55;;;4.50;99.90;;;;;;5119092;27;20082;-66
2022/05/03 01:07:22;;;;;;;12.88;6.50;;;4.50;99.90;;;;;;5112745;27;20369;-66
2022/05/03 01:10:07;;;;;;;9.05;5.22;;;4.40;99.90;;;;;;5078412;27;20523;-66
2022/05/03 01:12:36;;;;;;;12.23;5.60;;;4.40;99.90;;;;;;5114270;27;20047;-66
2022/05/03 01:15:07;;;;;;;11.80;5.72;;;4.40;99.90;;;;;;5113221;27;20047;-66
2022/05/03 01:17:44;;;;;;;10.10;5.55;;;4.40;99.90;;;;;;5111848;27;20036;-66
2022/05/03 01:20:14;;;;;;;11.00;5.78;;;4.40;99.90;;;;;;5114650;27;20118;-66
2022/05/03 01:23:00;;;;;;;14.38;6.03;;;4.40;99.90;;;;;;5114468;27;20134;-68
2022/05/03 01:25:43;;;;;;;11.23;5.40;;;4.40;99.90;;;;;;5117819;27;20134;-66
2022/05/03 01:28:31;;;;;;;10.50;5.57;;;4.40;99.90;;;;;;5114996;27;20046;-66
2022/05/03 01:30:58;;;;;;;11.85;6.22;;;4.40;99.90;;;;;;5119834;27;20047;-67
2022/05/03 01:33:36;;;;;;;11.73;5.80;;;4.30;99.90;;;;;;5115786;27;20116;-66
2022/05/03 01:36:05;;;;;;;12.27;6.13;;;4.30;99.90;;;;;;5114982;27;20043;-66
2022/05/03 01:39:02;;;;;;;10.70;5.63;;;4.30;99.90;;;;;;5116024;27;20380;-66
2022/05/03 01:41:51;;;;;;;12.90;6.30;;;4.30;99.90;;;;;;5118206;27;20512;-66
2022/05/03 01:44:37;;;;;;;10.95;5.68;;;4.30;99.90;;;;;;5119294;27;20050;-66
2022/05/03 01:47:12;;;;;;;10.73;5.55;;;4.30;99.90;;;;;;5117527;27;20055;-66
2022/05/03 01:52:50;;;;;;;12.63;6.80;;;4.30;99.90;;;;;;5120613;27;20130;-66
2022/05/03 01:55:49;;;;;;;12.32;6.18;;;4.20;99.90;;;;;;5118864;27;20369;-66
2022/05/03 01:58:53;;;;;;;12.15;5.70;;;4.20;99.90;;;;;;5115292;27;20058;-66
2022/05/03 02:01:42;;;;;;;11.02;6.68;;;4.20;99.90;;;;;;5130638;27;20051;-66
2022/05/03 02:04:37;;;;;;;11.38;5.80;;;4.20;99.90;;;;;;5106193;27;20451;-66
2022/05/03 02:07:16;;;;;;;10.77;6.50;;;4.10;99.90;;;;;;5116028;27;20521;-67
2022/05/03 02:10:25;;;;;;;11.23;5.63;;;4.10;99.90;;;;;;5117488;27;20122;-66
2022/05/03 02:13:01;;;;;;;9.75;5.03;;;4.10;99.90;;;;;;5081505;27;20077;-66
2022/05/03 02:15:39;;;;;;;10.18;6.10;;;4.00;99.90;;;;;;5117936;27;20050;-65
2022/05/03 02:18:08;;;;;;;9.50;5.30;;;4.00;99.90;;;;;;5101035;27;20191;-66
2022/05/03 02:20:56;;;;;;;11.52;5.88;;;4.00;99.90;;;;;;5117791;27;20068;-66
2022/05/03 02:23:31;;;;;;;11.15;5.40;;;4.00;99.90;;;;;;5119242;27;20046;-66
2022/05/03 02:26:16;;;;;;;11.82;6.43;;;4.00;99.90;;;;;;5117605;27;20438;-66
2022/05/03 02:28:59;;;;;;;11.52;5.65;;;4.00;99.90;;;;;;5117377;27;20134;-66
2022/05/03 02:31:41;;;;;;;11.98;5.55;;;4.00;99.90;;;;;;5114814;27;20048;-66
2022/05/03 02:34:22;;;;;;;12.20;6.35;;;4.10;99.90;;;;;;5116025;27;20040;-66
2022/05/03 02:36:59;;;;;;;10.40;5.43;;;4.10;99.90;;;;;;5098314;28;20055;-66
2022/05/03 02:39:31;;;;;;;9.25;5.40;;;4.30;99.90;;;;;;5116293;27;20050;-66
2022/05/03 02:42:02;;;;;;;12.02;5.93;;;4.30;99.90;;;;;;5116679;27;20526;-66
2022/05/03 02:44:31;;;;;;;11.27;6.13;;;4.40;99.90;;;;;;5119556;27;20128;-66
2022/05/03 02:47:04;;;;;;;10.10;6.05;;;4.40;99.90;;;;;;5117924;27;20036;-66
2022/05/03 02:49:53;;;;;;;10.43;6.10;;;4.50;99.90;;;;;;5116292;28;20491;-66
2022/05/03 02:52:31;;;;;;;13.25;6.80;;;4.60;99.90;;;;;;5116042;27;20662;-66
2022/05/03 02:55:25;;;;;;;11.93;6.13;;;4.70;99.90;;;;;;5115936;27;20051;-66
2022/05/03 02:58:03;;;;;;;10.70;6.03;;;4.80;99.90;;;;;;5118692;28;20031;-66
2022/05/03 03:03:42;;;;;;;12.40;7.13;;;4.90;99.90;;;;;;5113614;28;20058;-66
2022/05/03 03:06:20;;;;;;;12.65;7.18;;;5.00;99.90;;;;;;5116411;27;20423;-66
2022/05/03 03:08:47;;;;;;;14.00;7.40;;;5.10;99.90;;;;;;5115319;28;20358;-66
2022/05/03 03:11:24;;;;;;;13.70;7.90;;;5.20;99.90;;;;;;5118756;27;20399;-66
2022/05/03 03:13:49;;;;;;;13.85;7.25;;;5.20;99.90;;;;;;5115545;27;20051;-66
2022/05/03 03:16:26;;;;;;;13.10;7.40;;;5.20;99.90;;;;;;5117613;28;20518;-68
2022/05/03 03:18:52;;;;;;;13.23;7.63;;;5.30;99.90;;;;;;5117657;28;20507;-66
2022/05/03 03:21:24;;;;;;;12.25;7.43;;;5.50;99.90;;;;;;5116962;28;20125;-66
2022/05/03 03:23:52;;;;;;;11.85;6.93;;;5.40;99.90;;;;;;5115705;27;20122;-65
2022/05/03 03:26:20;;;;;;;13.00;8.15;;;5.50;99.90;;;;;;5116720;27;20536;-66
2022/05/03 03:28:47;;;;;;;14.95;8.65;;;5.60;99.90;;;;;;5115980;28;20441;-66
2022/05/03 03:31:15;;;;;;;14.63;7.40;;;5.60;99.90;;;;;;5115993;27;20104;-66
2022/05/03 03:33:41;;;;;;;12.43;7.57;;;5.70;99.90;;;;;;5118060;27;20388;-66
2022/05/03 03:36:08;;;;;;;13.07;8.10;;;5.70;99.90;;;;;;5115614;28;20048;-65
2022/05/03 03:38:43;;;;;;;12.68;7.63;;;5.80;99.90;;;;;;5118345;28;20062;-66
2022/05/03 03:41:09;;;;;;;17.15;9.10;;;5.80;99.90;;;;;;5118927;28;20454;-66
2022/05/03 03:43:35;;;;;;;16.20;9.75;;;5.90;99.90;;;;;;5116097;28;20051;-66
2022/05/03 03:46:01;;;;;;;14.73;9.50;;;5.90;99.90;;;;;;5115572;28;20047;-66
2022/05/03 03:48:26;;;;;;;16.30;9.18;;;6.00;99.90;;;;;;5119040;28;20039;-67
2022/05/03 03:50:55;;;;;;;14.50;8.77;;;6.00;99.90;;;;;;5115763;28;20518;-66
2022/05/03 03:53:21;;;;;;;14.05;7.65;;;6.00;99.90;;;;;;5117920;27;20077;-66
2022/05/03 03:55:49;;;;;;;14.93;8.55;;;6.10;99.90;;;;;;5115381;28;20055;-66
2022/05/03 03:58:16;;;;;;;16.70;8.70;;;6.10;99.90;;;;;;5115259;28;20031;-65
2022/05/03 04:00:42;;;;;;;17.40;9.35;;;6.20;99.90;;;;;;5114853;27;20445;-66
2022/05/03 04:03:08;;;;;;;16.88;7.95;;;6.20;99.90;;;;;;5120827;27;20031;-66
2022/05/03 04:05:35;;;;;;;14.55;8.07;;;6.30;99.90;;;;;;5118719;27;20047;-66
2022/05/03 04:08:01;;;;;;;15.85;8.55;;;6.40;99.90;;;;;;5119993;27;20060;-66
2022/05/03 04:10:27;;;;;;;15.13;8.50;;;6.30;99.90;;;;;;5122648;27;20043;-66
2022/05/03 04:12:52;;;;;;;17.58;9.40;;;6.30;99.90;;;;;;5118989;27;20396;-66
2022/05/03 04:15:18;;;;;;;16.77;9.93;;;6.40;99.90;;;;;;5113214;27;20554;-66
2022/05/03 04:17:44;;;;;;;18.77;9.50;;;6.40;99.90;;;;;;5116809;27;20038;-66
2022/05/03 04:20:12;;;;;;;16.38;9.25;;;6.40;99.90;;;;;;5106226;27;20428;-66
2022/05/03 04:22:38;;;;;;;16.75;9.02;;;6.40;99.90;;;;;;5101116;27;20201;-66
2022/05/03 04:25:04;;;;;;;16.27;9.55;;;6.50;99.90;;;;;;5116699;27;20551;-66
2022/05/03 04:27:30;;;;;;;17.30;10.32;;;6.50;99.90;;;;;;5102918;27;20054;-66
2022/05/03 04:29:59;;;;;;;14.18;9.23;;;6.50;99.90;;;;;;5115689;27;20411;-65
2022/05/03 04:32:30;;;;;;;13.65;8.60;;;6.60;99.90;;;;;;5099884;27;20039;-66
2022/05/03 04:34:56;;;;;;;15.23;9.35;;;6.60;99.90;;;;;;5090850;27;20075;-66
2022/05/03 04:37:21;;;;;;;15.55;8.80;;;6.60;99.90;;;;;;5116748;27;20078;-66
2022/05/03 04:39:47;;;;;;;15.85;9.93;;;6.60;99.90;;;;;;5108469;27;20174;-66
2022/05/03 04:42:13;;;;;;;18.92;10.13;;;6.70;99.90;;;;;;5113360;27;20050;-66
2022/05/03 04:44:39;;;;;;;20.08;10.25;;;6.70;99.90;;;;;;5113700;27;20043;-66
2022/05/03 04:47:05;;;;;;;16.38;10.23;;;6.80;99.90;;;;;;5114489;27;20039;-66
2022/05/03 04:49:31;;;;;;;18.25;11.05;;;6.80;99.90;;;;;;5111598;27;20079;-65
2022/05/03 04:51:57;;;;;;;22.67;10.85;;;6.80;99.90;;;;;;5113686;27;20071;-66
2022/05/03 04:54:23;;;;;;;19.83;11.13;;;7.00;99.90;;;;;;5091180;27;20097;-66
2022/05/03 04:57:01;;;;;;;21.33;10.50;;;6.90;99.90;;;;;;5111350;27;20047;-66
2022/05/03 04:59:27;;;;;;;21.08;11.90;;;7.00;99.90;;;;;;5099290;27;20380;-66
2022/05/03 05:01:53;;;;;;;21.20;10.70;;;7.00;99.90;;;;;;5119445;27;20067;-66
2022/05/03 05:04:18;;;;;;;18.95;11.25;;;7.00;99.90;;;;;;5122196;27;20404;-66
2022/05/03 05:06:44;;;;;;;18.25;11.55;;;7.00;99.90;;;;;;5120569;27;20046;-65
2022/05/03 05:09:10;;;;;;;18.55;11.10;;;7.00;99.90;;;;;;5106598;27;20051;-66
2022/05/03 05:11:36;;;;;;;18.25;10.77;;;7.10;99.90;;;;;;5118597;27;20043;-66
2022/05/03 05:14:01;;;;;;;18.92;11.45;;;7.10;99.90;;;;;;5111289;27;20093;-66
2022/05/03 05:16:27;;;;;;;19.52;11.57;;;7.20;99.90;;;;;;5117711;27;20395;-67
2022/05/03 05:18:53;;;;;;;18.63;12.15;;;7.20;99.90;;;;;;5117742;27;20039;-66
2022/05/03 05:21:18;;;;;;;22.38;11.88;;;7.30;99.90;;;;;;5124103;27;20063;-66
2022/05/03 05:23:44;;;;;;;22.83;13.40;;;7.30;99.90;;;;;;5118323;27;20051;-66
2022/05/03 05:26:11;;;;;;;21.95;12.50;;;7.40;99.90;;;;;;5117194;27;20039;-65
2022/05/03 05:28:36;;;;;;;23.38;12.65;;;7.50;99.90;;;;;;5092593;27;20043;-66
2022/05/03 05:31:02;;;;;;;21.02;13.00;;;7.50;99.90;;;;;;5109852;27;20411;-65
2022/05/03 05:33:28;;;;;;;23.20;13.77;;;7.60;99.90;;;;;;5116486;27;20404;-66
2022/05/03 05:35:54;;;;;;;23.80;13.10;;;7.60;99.90;;;;;;5098783;27;20539;-65
2022/05/03 05:38:20;;;;;;;22.60;12.73;;;7.60;99.90;;;;;;5115680;27;20140;-65
2022/05/03 05:40:46;;;;;;;21.42;12.98;;;7.70;99.90;;;;;;5121617;27;20416;-66
2022/05/03 05:43:13;;;;;;;23.10;12.25;;;7.70;99.90;;;;;;5119954;27;20508;-65
2022/05/03 05:45:39;;;;;;;20.17;11.02;;;7.80;99.90;;;;;;5119825;27;20110;-65
2022/05/03 05:48:06;;;;;;;20.27;11.60;;;8.70;99.90;;;;;;5114009;27;20055;-65
2022/05/03 05:50:32;;;;;;;27.45;13.73;;;7.80;99.90;;;;;;5125585;27;20043;-65
2022/05/03 05:55:45;;;;;;;23.25;13.18;;;7.90;99.90;;;;;;5124675;27;20045;-66
2022/05/03 05:58:11;;;;;;;21.90;13.48;;;8.00;99.90;;;;;;5123078;27;20135;-66
2022/05/03 06:00:37;;;;;;;23.48;13.77;;;8.00;99.90;;;;;;5117000;27;20594;-66
2022/05/03 06:03:03;;;;;;;23.42;12.40;;;8.00;99.90;;;;;;5119835;27;20150;-66
2022/05/03 06:05:31;;;;;;;24.80;13.25;;;8.00;99.90;;;;;;5119925;27;20050;-66
2022/05/03 06:07:57;;;;;;;23.55;13.02;;;8.10;99.90;;;;;;5120126;27;20408;-66
2022/05/03 06:10:23;;;;;;;21.17;12.20;;;8.10;99.90;;;;;;5119346;27;20035;-66
2022/05/03 06:12:49;;;;;;;22.80;12.73;;;8.10;99.90;;;;;;5119142;27;20089;-66
2022/05/03 06:15:15;;;;;;;21.67;12.23;;;8.20;99.90;;;;;;5114007;27;20035;-65
2022/05/03 06:17:41;;;;;;;28.60;13.93;;;8.20;99.90;;;;;;5117028;27;20400;-65
2022/05/03 06:20:08;;;;;;;30.85;15.93;;;8.20;99.90;;;;;;5119450;27;20046;-66
2022/05/03 06:22:34;;;;;;;24.98;14.93;;;8.20;99.90;;;;;;5115621;27;20122;-66
2022/05/03 06:25:00;;;;;;;32.92;15.60;;;8.30;99.90;;;;;;5116243;27;20135;-65
2022/05/03 06:27:26;;;;;;;22.63;13.10;;;8.30;99.90;;;;;;5110829;27;20032;-65
2022/05/03 06:29:51;;;;;;;9.13;3.08;;;8.40;99.90;;;;;;5114035;27;20039;-65
2022/05/03 06:32:17;;;;;;;6.15;2.00;;;8.40;99.90;;;;;;5114964;27;20419;-66
2022/05/03 06:34:43;;;;;;;7.70;2.13;;;8.40;99.90;;;;;;5118162;27;20400;-66
2022/05/03 06:37:08;;;;;;;4.97;1.50;;;8.50;99.90;;;;;;5121618;27;20445;-65
2022/05/03 06:39:37;;;;;;;4.68;2.05;;;8.50;99.90;;;;;;5108266;27;20048;-66
2022/05/03 06:42:05;;;;;;;3.72;1.63;;;8.60;99.90;;;;;;5118705;27;20046;-64
2022/05/03 06:44:31;;;;;;;9.07;2.88;;;8.60;99.90;;;;;;5118780;27;20045;-65
2022/05/03 06:46:56;;;;;;;7.55;2.42;;;8.60;99.90;;;;;;5120807;27;20479;-66
2022/05/03 06:49:22;;;;;;;5.13;1.38;;;8.60;99.90;;;;;;5116392;27;20038;-65
2022/05/03 06:51:48;;;;;;;2.92;1.30;;;8.60;99.90;;;;;;5106818;28;20128;-64
2022/05/03 06:54:13;;;;;;;2.08;1.13;;;8.70;99.90;;;;;;5117029;27;20723;-65
2022/05/03 06:56:39;;;;;;;1.88;0.85;;;8.70;99.90;;;;;;5119752;27;20554;-66
2022/05/03 06:59:07;;;;;;;2.95;1.00;;;8.70;99.90;;;;;;5109945;27;20031;-66
2022/05/03 07:01:32;;;;;;;1.40;0.80;;;8.70;99.90;;;;;;5115930;28;20031;-66
2022/05/03 07:03:58;;;;;;;3.28;1.05;;;8.70;99.90;;;;;;5119129;27;20100;-67
2022/05/03 07:06:24;;;;;;;3.58;0.80;;;8.80;99.90;;;;;;5114423;28;20042;-67
2022/05/03 07:08:50;;;;;;;1.45;0.90;;;8.80;99.90;;;;;;5118231;27;20039;-67
2022/05/03 07:11:16;;;;;;;7.82;1.48;;;8.80;99.90;;;;;;5123038;28;20081;-67
2022/05/03 07:13:41;;;;;;;4.72;1.73;;;8.80;99.90;;;;;;5117501;28;20039;-67
2022/05/03 07:16:07;;;;;;;1.42;1.00;;;8.80;99.90;;;;;;5117555;28;20361;-67
2022/05/03 07:24:01;;;;;;;0.20;0.20;;;8.90;99.90;;;;;;5112149;28;20066;-67
2022/05/03 07:26:27;;;;;;;11.30;0.80;;;9.00;99.90;;;;;;5117451;28;20043;-67
2022/05/03 07:28:52;;;;;;;1.35;0.93;;;9.10;99.90;;;;;;5115083;28;20039;-67
2022/05/03 07:31:20;;;;;;;2.03;1.25;;;9.10;99.90;;;;;;5119517;27;20108;-67
2022/05/03 07:33:46;;;;;;;0.45;0.43;;;9.10;99.90;;;;;;5116203;27;20073;-67
2022/05/03 07:36:12;;;;;;;1.08;0.50;;;9.10;99.90;;;;;;5117205;27;20650;-67
2022/05/03 07:38:39;;;;;;;0.70;0.55;;;9.20;99.90;;;;;;5122540;27;20111;-66
2022/05/03 07:41:09;;;;;;;1.20;0.43;;;9.20;99.90;;;;;;5114575;27;20550;-67
2022/05/03 07:43:35;;;;;;;0.85;0.47;;;9.20;99.90;;;;;;5116679;27;20112;-67
2022/05/03 07:46:01;;;;;;;3.35;1.63;;;9.70;99.90;;;;;;5118894;27;20495;-67
2022/05/03 07:48:27;;;;;;;0.35;0.30;;;9.30;99.90;;;;;;5119855;27;20509;-67
2022/05/03 07:50:53;;;;;;;18.13;1.65;;;9.30;99.90;;;;;;5118212;27;20055;-66
2022/05/03 07:53:19;;;;;;;4.90;1.50;;;9.40;99.90;;;;;;5120255;27;20117;-67
2022/05/03 07:55:47;;;;;;;2.95;1.33;;;9.40;99.90;;;;;;5117373;27;20479;-67
2022/05/03 07:58:14;;;;;;;2.58;2.20;;;9.50;99.90;;;;;;5112991;27;20085;-67
2022/05/03 08:00:39;;;;;;;0.68;0.35;;;9.70;99.90;;;;;;5115609;27;20490;-67
2022/05/03 08:03:05;;;;;;;5.15;0.85;;;9.80;99.90;;;;;;5123304;27;20039;-67
2022/05/03 08:05:31;;;;;;;1.55;1.45;;;9.80;99.90;;;;;;5116484;27;20112;-65
2022/05/03 08:07:56;;;;;;;1.60;0.80;;;9.90;99.90;;;;;;5114921;27;20058;-65
2022/05/03 08:10:22;;;;;;;2.45;1.05;;;9.90;99.90;;;;;;5114320;27;20051;-67
2022/05/03 08:12:51;;;;;;;4.53;0.85;;;9.90;99.90;;;;;;5114248;27;20083;-66
2022/05/03 08:15:21;;;;;;;1.25;0.70;;;9.80;99.90;;;;;;5123496;27;20051;-67
2022/05/03 08:17:47;;;;;;;0.30;0.30;;;9.80;99.90;;;;;;5115104;27;20054;-65
2022/05/03 08:20:13;;;;;;;2.65;0.90;;;10.10;99.90;;;;;;5114785;27;20082;-67
2022/05/03 08:22:41;;;;;;;7.78;2.08;;;9.80;99.90;;;;;;5095936;27;20055;-65
2022/05/03 08:25:08;;;;;;;3.72;1.55;;;9.90;99.90;;;;;;5115577;27;20106;-66
2022/05/03 08:27:38;;;;;;;1.17;0.73;;;9.90;99.90;;;;;;5114549;27;20043;-66
2022/05/03 08:30:05;;;;;;;1.50;1.02;;;9.90;99.90;;;;;;5112736;27;20119;-66
2022/05/03 08:32:30;;;;;;;6.15;1.35;;;10.00;99.90;;;;;;5113093;27;20075;-66
2022/05/03 08:34:56;;;;;;;2.67;1.45;;;10.00;99.90;;;;;;5118985;27;20126;-65
2022/05/03 08:42:51;;;;;;;12.32;1.83;;;10.00;99.90;;;;;;5117142;27;20051;-68
2022/05/03 08:45:20;;;;;;;5.82;1.23;;;10.00;99.90;;;;;;5113961;27;20035;-66
2022/05/03 08:47:47;;;;;;;7.82;1.60;;;10.00;99.90;;;;;;5108242;27;20075;-66
2022/05/03 08:50:18;;;;;;;9.48;1.70;;;10.10;99.90;;;;;;5117519;27;20269;-66
2022/05/03 08:53:01;;;;;;;6.03;1.57;;;10.10;99.90;;;;;;5110913;27;20055;-65
2022/05/03 08:55:27;;;;;;;12.95;1.70;;;10.10;99.90;;;;;;5113189;27;20309;-66
2022/05/03 08:57:53;;;;;;;15.40;1.77;;;10.10;99.90;;;;;;5114680;27;20476;-66
2022/05/03 09:00:20;;;;;;;3.15;0.95;;;10.00;99.90;;;;;;5119633;27;20057;-66
2022/05/03 09:02:51;;;;;;;6.82;1.13;;;10.10;99.90;;;;;;5116756;27;20040;-67
2022/05/03 09:05:18;;;;;;;4.72;1.50;;;10.20;99.90;;;;;;5118143;27;20047;-66
2022/05/03 09:07:59;;;;;;;10.45;1.17;;;10.20;99.90;;;;;;5111592;27;20038;-65
2022/05/03 09:10:28;;;;;;;14.25;1.35;;;10.30;99.90;;;;;;5112359;27;20047;-65
2022/05/03 09:13:04;;;;;;;0.63;0.20;;;10.40;99.90;;;;;;5111408;27;20100;-65
2022/05/03 09:15:32;;;;;;;1.33;0.80;;;10.50;99.90;;;;;;5114680;27;20518;-66
2022/05/03 09:17:58;;;;;;;5.72;1.20;;;10.60;99.90;;;;;;5114933;27;20407;-66
2022/05/03 09:26:12;;;;;;;11.60;1.92;;;10.90;99.90;;;;;;5108714;27;20724;-66
2022/05/03 09:29:08;;;;;;;13.80;1.50;;;10.90;99.90;;;;;;5101745;27;20039;-65
2022/05/03 09:31:35;;;;;;;4.68;1.13;;;11.00;99.90;;;;;;5112124;27;20089;-66
2022/05/03 09:34:28;;;;;;;4.43;0.90;;;11.10;99.90;;;;;;5109837;27;20047;-67
2022/05/03 09:37:00;;;;;;;9.68;1.35;;;11.10;99.90;;;;;;5106979;27;20028;-66
2022/05/03 09:39:32;;;;;;;16.15;3.55;;;11.20;99.90;;;;;;5108630;27;20047;-66
2022/05/03 09:42:06;;;;;;;;;;;11.30;99.90;;;;;;5110679;27;20047;-66
2022/05/03 09:44:36;;;;;;;12.77;2.55;;;11.40;99.90;;;;;;5105296;27;19923;-66
2022/05/03 09:47:09;;;;;;;12.75;3.20;;;11.50;99.90;;;;;;5106306;27;20044;-66
2022/05/03 09:49:37;;;;;;;12.38;2.60;;;11.70;99.90;;;;;;5105755;27;20478;-66
2022/05/03 09:52:04;;;;;;;7.35;2.30;;;11.80;99.90;;;;;;5115212;27;20189;-67
2022/05/03 09:54:49;;;;;;;9.75;2.38;;;11.90;99.90;;;;;;5114648;27;20055;-66
2022/05/03 09:57:23;;;;;;;9.75;2.35;;;12.00;99.90;;;;;;5117980;27;20047;-66
2022/05/03 09:59:51;;;;;;;13.93;2.53;;;12.20;99.90;;;;;;5115804;27;20112;-66
2022/05/03 10:02:22;;;;;;;10.43;2.25;;;12.30;99.90;;;;;;5117544;27;20561;-66
2022/05/03 10:04:49;;;;;;;;;;;12.40;99.90;;;;;;5113152;27;20127;-66
2022/05/03 10:07:15;;;;;;;9.93;2.00;;;12.40;99.90;;;;;;5117994;27;19927;-66
2022/05/03 10:09:42;;;;;;;15.27;2.65;;;12.30;99.90;;;;;;5110187;27;20488;-66
2022/05/03 10:12:12;;;;;;;8.30;1.92;;;12.30;99.90;;;;;;5114156;27;20543;-66
2022/05/03 10:14:42;;;;;;;8.25;2.33;;;12.40;99.90;;;;;;5113586;27;20039;-66
2022/05/03 10:21:00;;;;;;;8.50;2.10;;;12.40;99.90;;;;;;5110570;27;20047;-66
2022/05/03 10:23:01;;;;;;;11.68;2.65;;;12.50;99.90;;;;;;5105555;27;20212;-66
2022/05/03 10:25:55;;;;;;;4.40;1.33;;;12.50;99.90;;;;;;5113919;27;20035;-66
2022/05/03 10:28:20;;;;;;;15.07;2.63;;;12.50;99.90;;;;;;5113115;27;20043;-67
2022/05/03 10:31:05;;;;;;;9.25;2.33;;;12.60;99.90;;;;;;5112610;27;20050;-66
2022/05/03 10:33:30;;;;;;;10.93;2.13;;;12.60;99.90;;;;;;5104437;27;20126;-66
2022/05/03 10:35:58;;;;;;;14.48;2.35;;;12.70;99.90;;;;;;5107516;27;20403;-66
2022/05/03 10:38:38;;;;;;;11.13;2.17;;;12.70;99.90;;;;;;5096564;27;20555;-66
2022/05/03 10:41:11;;;;;;;8.70;1.60;;;12.60;99.90;;;;;;5093122;27;20109;-66
2022/05/03 10:43:38;;;;;;;7.43;1.40;;;12.60;99.90;;;;;;5103386;27;20051;-66
2022/05/03 10:46:12;;;;;;;9.43;1.80;;;12.60;99.90;;;;;;5105783;27;20141;-66
2022/05/03 10:48:42;;;;;;;9.63;1.80;;;12.60;99.90;;;;;;5112597;27;20037;-67
2022/05/03 10:51:09;;;;;;;8.95;1.60;;;12.90;99.90;;;;;;5118308;27;20218;-66
2022/05/03 10:53:37;;;;;;;8.48;1.73;;;12.70;99.90;;;;;;5108128;27;20051;-66
2022/05/03 10:56:09;;;;;;;8.70;1.52;;;12.70;99.90;;;;;;5109852;27;20051;-66
2022/05/03 10:58:35;;;;;;;;;;;12.80;99.90;;;;;;5118424;27;20441;-66
2022/05/03 11:01:10;;;;;;;13.40;1.70;;;12.90;99.90;;;;;;5118150;28;20264;-66
2022/05/03 11:03:38;;;;;;;9.07;1.75;;;13.00;99.90;;;;;;5111859;28;20395;-66
2022/05/03 11:06:19;;;;;;;7.43;1.65;;;13.00;99.90;;;;;;5122691;27;20168;-66
2022/05/03 11:09:08;;;;;;;8.65;1.77;;;13.00;99.90;;;;;;5117829;28;20069;-66
2022/05/03 11:11:37;;;;;;;11.05;2.00;;;13.10;99.90;;;;;;5120333;27;20070;-66
2022/05/03 11:14:04;;;;;;;7.43;1.67;;;13.10;99.90;;;;;;5118827;27;20515;-66
2022/05/03 11:16:34;;;;;;;7.78;1.83;;;13.30;99.90;;;;;;5118599;27;20123;-66
2022/05/03 11:19:12;;;;;;;9.10;1.80;;;13.40;99.90;;;;;;5119075;27;20095;-66
2022/05/03 11:21:38;;;;;;;8.38;1.90;;;13.50;99.90;;;;;;5105451;27;20061;-66
2022/05/03 11:24:05;;;;;;;9.23;1.73;;;13.60;99.90;;;;;;5121296;27;20046;-66
2022/05/03 11:26:31;;;;;;;11.38;2.15;;;13.40;99.90;;;;;;5121965;27;20051;-66
2022/05/03 11:29:01;;;;;;;10.30;1.80;;;13.40;99.90;;;;;;5120822;27;20116;-66
2022/05/03 11:31:30;;;;;;;12.88;2.00;;;13.40;99.90;;;;;;5120680;27;20039;-67
2022/05/03 11:34:01;;;;;;;9.15;1.70;;;13.40;99.90;;;;;;5119194;27;20035;-66
2022/05/03 11:36:28;;;;;;;11.88;1.73;;;13.50;99.90;;;;;;5116293;27;20038;-66
2022/05/03 11:38:55;;;;;;;12.38;2.08;;;13.60;99.90;;;;;;5120925;27;20074;-66
2022/05/03 11:41:26;;;;;;;10.35;2.80;;;13.70;99.90;;;;;;5112034;27;20507;-66
2022/05/03 11:43:53;;;;;;;9.95;1.90;;;13.60;99.90;;;;;;5117016;27;20043;-66
2022/05/03 11:46:21;;;;;;;8.88;2.25;;;13.60;99.90;;;;;;5114173;27;20567;-66
2022/05/03 11:48:54;;;;;;;8.88;1.80;;;13.60;99.90;;;;;;5117784;27;20115;-66
2022/05/03 11:57:13;;;;;;;6.95;1.70;;;13.30;99.90;;;;;;5121448;27;20062;-67
2022/05/03 11:59:42;;;;;;;9.25;2.08;;;13.30;99.90;;;;;;5117512;27;20044;-67
2022/05/03 12:02:18;;;;;;;6.57;1.42;;;13.30;99.90;;;;;;5115370;27;20380;-66
2022/05/03 12:05:11;;;;;;;9.13;1.73;;;13.30;99.90;;;;;;5124130;27;20031;-65
2022/05/03 12:07:40;;;;;;;6.20;1.58;;;13.30;99.90;;;;;;5120537;27;20055;-66
2022/05/03 12:10:26;;;;;;;6.32;1.75;;;13.20;99.90;;;;;;5117778;27;20055;-66
2022/05/03 12:13:14;;;;;;;8.38;1.63;;;13.20;99.90;;;;;;5119722;27;20035;-66
2022/05/03 12:15:48;;;;;;;5.63;1.17;;;13.30;99.90;;;;;;5106338;27;20517;-65
2022/05/03 12:18:41;;;;;;;10.70;1.45;;;13.30;99.90;;;;;;5105412;27;20496;-65
2022/05/03 12:21:08;;;;;;;8.57;1.83;;;13.60;99.90;;;;;;5109128;27;20072;-66
2022/05/03 12:23:34;;;;;;;7.93;1.90;;;14.10;99.90;;;;;;5109793;27;20082;-66
2022/05/03 12:26:13;;;;;;;10.48;1.63;;;14.60;99.90;;;;;;5110123;27;20130;-66
2022/05/03 12:28:42;;;;;;;7.00;1.75;;;14.50;99.90;;;;;;5117515;27;20039;-66
2022/05/03 12:31:09;;;;;;;10.27;1.90;;;14.10;99.10;;;;;;5112451;27;20044;-66
2022/05/03 12:33:43;;;;;;;10.20;1.77;;;13.70;99.50;;;;;;5117587;27;21278;-66
2022/05/03 12:36:09;;;;;;;8.82;1.25;;;13.40;99.90;;;;;;5117750;27;20122;-66
2022/05/03 12:38:55;;;;;;;13.20;2.35;;;13.30;99.90;;;;;;5117063;27;20038;-66
2022/05/03 12:41:23;;;;;;;11.02;1.98;;;13.10;99.90;;;;;;5110546;27;20056;-66
2022/05/03 12:44:08;;;;;;;10.25;2.15;;;12.90;99.90;;;;;;5100422;27;20054;-66
2022/05/03 12:46:34;;;;;;;15.77;2.63;;;12.70;99.90;;;;;;5113107;27;20108;-66
2022/05/03 12:49:11;;;;;;;9.52;1.80;;;12.60;99.90;;;;;;5094913;27;20055;-66
2022/05/03 12:51:47;;;;;;;11.73;2.40;;;12.90;99.90;;;;;;5117449;27;20047;-66
2022/05/03 12:54:14;;;;;;;8.82;1.70;;;13.20;99.90;;;;;;5104865;27;20047;-66
2022/05/03 12:59:26;;;;;;;9.50;1.70;;;13.80;99.90;;;;;;5115202;27;20055;-65
2022/05/03 13:01:55;;;;;;;8.32;1.80;;;14.10;99.90;;;;;;5088427;27;20039;-66
2022/05/03 13:04:21;;;;;;;8.93;1.42;;;14.40;99.90;;;;;;5116321;27;20055;-67
2022/05/03 13:06:48;;;;;;;7.13;1.63;;;14.80;99.90;;;;;;5117828;27;20349;-66
2022/05/03 13:09:14;;;;;;;8.30;1.80;;;14.80;99.70;;;;;;5108414;27;20828;-66
2022/05/03 13:11:41;;;;;;;9.93;1.73;;;15.00;99.90;;;;;;5111187;27;20047;-66
2022/05/03 13:14:08;;;;;;;8.68;1.67;;;15.20;99.90;;;;;;5115850;27;20104;-66
2022/05/03 13:16:34;;;;;;;12.70;2.22;;;15.30;99.90;;;;;;5113358;27;20032;-67
2022/05/03 13:18:59;;;;;;;9.88;2.10;;;15.20;98.10;;;;;;5116189;27;20106;-67
2022/05/03 13:21:25;;;;;;;6.18;1.50;;;15.20;98.70;;;;;;5092330;27;20051;-67
2022/05/03 13:23:53;;;;;;;8.82;1.70;;;15.20;98.50;;;;;;5105005;27;20085;-66
2022/05/03 13:26:18;;;;;;;10.15;1.83;;;15.20;98.70;;;;;;5103333;27;20095;-66
2022/05/03 13:28:44;;;;;;;12.65;1.98;;;15.20;98.00;;;;;;5106000;27;20131;-66
2022/05/03 13:31:13;;;;;;;10.30;2.00;;;15.20;96.10;;;;;;5108992;27;20039;-66
2022/05/03 13:33:39;;;;;;;10.73;2.28;;;15.00;97.10;;;;;;5104391;27;20432;-65
2022/05/03 13:41:33;;;;;;;15.38;2.10;;;14.50;97.40;;;;;;5083482;27;20311;-66
2022/05/03 13:43:59;;;;;;;11.07;2.00;;;14.20;96.50;;;;;;5098356;27;20403;-66
2022/05/03 13:46:25;;;;;;;9.60;1.85;;;13.90;96.50;;;;;;5109365;27;20583;-66
2022/05/03 13:48:52;;;;;;;12.68;1.70;;;13.50;96.80;;;;;;5099587;27;20043;-66
2022/05/03 13:51:18;;;;;;;12.05;1.90;;;13.20;98.30;;;;;;5098399;27;20043;-66
2022/05/03 13:53:43;;;;;;;6.85;1.75;;;13.10;98.40;;;;;;5099235;27;20047;-66